createdAt,value
2023-02-05T00:00:37.912Z,84.08
2023-02-05T00:01:38.532Z,83.98
2023-02-05T00:02:39.329Z,83.98
2023-02-05T00:04:38.810Z,83.98
2023-02-05T00:05:38.212Z,83.98
2023-02-05T00:06:38.108Z,83.98
2023-02-05T00:07:38.125Z,83.98
2023-02-05T00:08:38.533Z,84.08
2023-02-05T00:09:39.322Z,83.98
2023-02-05T00:10:38.369Z,84.08
2023-02-05T00:11:38.424Z,84.08
2023-02-05T00:12:38.364Z,84.18
2023-02-05T00:13:38.690Z,84.18
2023-02-05T00:14:38.589Z,83.98
2023-02-05T00:15:38.975Z,83.98
2023-02-05T00:18:38.485Z,84.08
2023-02-05T00:19:38.914Z,83.98
2023-02-05T00:20:38.904Z,84.18
2023-02-05T00:21:38.916Z,84.08
2023-02-05T00:22:38.989Z,83.98
2023-02-05T00:24:38.938Z,84.18
2023-02-05T00:25:38.688Z,83.98
2023-02-05T00:26:38.877Z,84.08
2023-02-05T00:27:38.990Z,84.08
2023-02-05T00:28:39.116Z,84.08
2023-02-05T00:29:39.477Z,84.08
2023-02-05T00:30:38.930Z,83.98
2023-02-05T00:31:38.936Z,84.08
2023-02-05T00:32:39.089Z,84.14
2023-02-05T00:33:39.080Z,83.89
2023-02-05T00:34:39.328Z,84.18
2023-02-05T00:35:38.934Z,83.98
2023-02-05T00:36:39.605Z,83.89
2023-02-05T00:37:39.409Z,83.98
2023-02-05T00:38:38.845Z,83.89
2023-02-05T00:39:39.533Z,83.89
2023-02-05T00:40:39.126Z,83.98
2023-02-05T00:41:39.012Z,83.98
2023-02-05T00:42:39.363Z,83.89
2023-02-05T00:43:39.134Z,83.89
2023-02-05T00:44:39.473Z,83.85
2023-02-05T00:46:39.622Z,83.98
2023-02-05T00:47:39.581Z,83.94
2023-02-05T00:48:39.555Z,83.85
2023-02-05T00:49:39.778Z,83.94
2023-02-05T00:50:39.349Z,83.94
2023-02-05T00:51:39.559Z,83.94
2023-02-05T00:52:39.883Z,83.89
2023-02-05T00:53:39.356Z,83.85
2023-02-05T00:55:39.869Z,83.85
2023-02-05T00:56:39.463Z,83.80
2023-02-05T00:57:39.899Z,83.89
2023-02-05T00:58:39.838Z,83.80
2023-02-05T00:59:39.809Z,83.80
2023-02-05T01:00:39.463Z,83.94
2023-02-05T01:01:39.710Z,83.94
2023-02-05T01:02:39.652Z,83.80
2023-02-05T01:03:39.827Z,83.94
2023-02-05T01:05:40.145Z,83.98
2023-02-05T01:06:40.243Z,83.80
2023-02-05T01:07:40.508Z,83.80
2023-02-05T01:08:40.006Z,83.98
2023-02-05T01:09:39.988Z,83.98
2023-02-05T01:10:40.225Z,83.75
2023-02-05T01:11:41.128Z,83.94
2023-02-05T01:12:43.446Z,83.94
2023-02-05T01:13:41.482Z,84.04
2023-02-05T01:14:42.582Z,84.23
2023-02-05T01:15:41.015Z,84.14
2023-02-05T01:16:41.081Z,84.14
2023-02-05T01:18:40.259Z,83.85
2023-02-05T01:19:41.016Z,84.14
2023-02-05T01:20:41.952Z,84.42
2023-02-05T01:21:40.916Z,84.04
2023-02-05T01:22:40.904Z,83.85
2023-02-05T01:23:40.333Z,84.14
2023-02-05T01:25:40.242Z,84.04
2023-02-05T01:26:40.285Z,84.14
2023-02-05T01:27:40.972Z,84.04
2023-02-05T01:28:40.675Z,84.42
2023-02-05T01:29:40.992Z,84.14
2023-02-05T01:30:40.616Z,84.14
2023-02-05T01:31:40.544Z,83.85
2023-02-05T01:32:40.370Z,84.14
2023-02-05T01:33:40.752Z,84.14
2023-02-05T01:34:40.843Z,84.04
2023-02-05T01:35:40.835Z,84.14
2023-02-05T01:36:40.779Z,84.04
2023-02-05T01:37:40.941Z,84.33
2023-02-05T01:38:40.664Z,84.04
2023-02-05T01:39:40.759Z,84.14
2023-02-05T01:40:41.314Z,84.14
2023-02-05T01:41:41.067Z,84.04
2023-02-05T01:42:40.990Z,84.33
2023-02-05T01:43:40.794Z,84.14
2023-02-05T01:45:41.304Z,84.14
2023-02-05T01:46:41.341Z,84.33
2023-02-05T01:47:41.168Z,84.14
2023-02-05T01:49:41.555Z,84.14
2023-02-05T01:50:41.513Z,84.14
2023-02-05T01:51:41.541Z,84.04
2023-02-05T01:52:41.039Z,84.23
2023-02-05T01:53:41.449Z,84.23
2023-02-05T01:54:41.317Z,84.23
2023-02-05T01:55:41.305Z,84.23
2023-02-05T01:56:41.731Z,84.23
2023-02-05T01:57:41.386Z,84.23
2023-02-05T01:58:41.474Z,84.33
2023-02-05T01:59:41.195Z,84.33
2023-02-05T02:01:41.849Z,84.23
2023-02-05T02:03:41.931Z,84.23
2023-02-05T02:04:41.788Z,84.33
2023-02-05T02:05:41.793Z,84.23
2023-02-05T02:06:41.635Z,84.33
2023-02-05T02:07:42.104Z,84.33
2023-02-05T02:08:41.868Z,84.33
2023-02-05T02:09:41.986Z,84.33
2023-02-05T02:10:41.964Z,83.94
2023-02-05T02:11:41.868Z,84.42
2023-02-05T02:12:42.002Z,84.23
2023-02-05T02:13:41.611Z,84.33
2023-02-05T02:14:41.921Z,84.33
2023-02-05T02:15:42.074Z,84.23
2023-02-05T02:16:42.038Z,84.33
2023-02-05T02:18:42.312Z,84.33
2023-02-05T02:19:42.336Z,84.04
2023-02-05T02:20:42.135Z,84.14
2023-02-05T02:21:43.026Z,84.33
2023-02-05T02:22:42.078Z,84.42
2023-02-05T02:23:42.284Z,84.33
2023-02-05T02:24:42.030Z,84.42
2023-02-05T02:25:42.436Z,84.33
2023-02-05T02:26:42.174Z,84.42
2023-02-05T02:27:42.190Z,84.42
2023-02-05T02:28:42.590Z,84.14
2023-02-05T02:29:42.933Z,84.42
2023-02-05T02:30:42.721Z,84.42
2023-02-05T02:31:42.757Z,84.14
2023-02-05T02:32:42.506Z,84.23
2023-02-05T02:33:42.270Z,84.14
2023-02-05T02:34:42.516Z,84.33
2023-02-05T02:35:42.237Z,84.42
2023-02-05T02:37:43.274Z,84.04
2023-02-05T02:39:42.435Z,83.94
2023-02-05T02:40:42.304Z,84.04
2023-02-05T02:41:42.634Z,84.42
2023-02-05T02:42:42.525Z,84.04
2023-02-05T02:43:42.425Z,84.14
2023-02-05T02:44:42.426Z,84.04
2023-02-05T02:45:42.836Z,84.23
2023-02-05T02:46:42.923Z,84.14
2023-02-05T02:47:43.259Z,84.23
2023-02-05T02:48:42.798Z,84.23
2023-02-05T02:49:43.003Z,84.23
2023-02-05T02:50:42.710Z,84.23
2023-02-05T02:51:42.974Z,84.42
2023-02-05T02:52:42.803Z,84.42
2023-02-05T02:53:43.126Z,83.94
2023-02-05T02:54:43.858Z,84.23
2023-02-05T02:55:43.787Z,84.14
2023-02-05T02:56:43.275Z,84.52
2023-02-05T02:57:42.877Z,84.33
2023-02-05T02:58:43.318Z,84.33
2023-02-05T02:59:43.229Z,84.33
2023-02-05T03:00:43.275Z,84.33
2023-02-05T03:01:52.337Z,84.33
2023-02-05T03:03:43.854Z,84.33
2023-02-05T03:04:43.114Z,84.14
2023-02-05T03:05:43.201Z,84.04
2023-02-05T03:06:43.177Z,84.04
2023-02-05T03:07:43.504Z,84.14
2023-02-05T03:08:43.503Z,84.14
2023-02-05T03:09:43.650Z,84.14
2023-02-05T03:10:43.203Z,84.33
2023-02-05T03:11:43.737Z,84.42
2023-02-05T03:12:43.567Z,84.04
2023-02-05T03:13:43.678Z,84.23
2023-02-05T03:14:43.963Z,84.14
2023-02-05T03:15:43.427Z,84.14
2023-02-05T03:16:43.702Z,84.23
2023-02-05T03:17:43.403Z,84.33
2023-02-05T03:18:43.923Z,84.23
2023-02-05T03:19:43.672Z,84.14
2023-02-05T03:20:43.752Z,84.23
2023-02-05T03:21:43.885Z,84.14
2023-02-05T03:22:43.728Z,84.14
2023-02-05T03:23:44.329Z,84.23
2023-02-05T03:24:44.172Z,84.14
2023-02-05T03:25:43.281Z,84.14
2023-02-05T03:26:43.300Z,84.23
2023-02-05T03:27:43.392Z,84.23
2023-02-05T03:28:43.364Z,84.23
2023-02-05T03:29:43.381Z,84.14
2023-02-05T03:30:43.709Z,84.14
2023-02-05T03:31:43.475Z,84.23
2023-02-05T03:32:43.462Z,84.23
2023-02-05T03:33:43.486Z,84.23
2023-02-05T03:34:43.515Z,84.33
2023-02-05T03:35:43.542Z,84.33
2023-02-05T03:36:43.574Z,84.23
2023-02-05T03:37:43.600Z,84.23
2023-02-05T03:38:43.640Z,84.14
2023-02-05T03:40:43.683Z,83.85
2023-02-05T03:41:43.714Z,84.23
2023-02-05T03:42:43.758Z,84.23
2023-02-05T03:46:43.871Z,84.14
2023-02-05T03:47:43.889Z,84.71
2023-02-05T03:48:43.914Z,84.14
2023-02-05T03:49:43.952Z,84.71
2023-02-05T03:50:43.965Z,83.85
2023-02-05T03:51:43.991Z,83.94
2023-02-05T03:52:44.022Z,84.81
2023-02-05T03:53:44.043Z,84.81
2023-02-05T03:54:44.068Z,84.81
2023-02-05T03:55:44.348Z,84.81
2023-02-05T03:56:44.123Z,84.81
2023-02-05T03:57:44.160Z,84.14
2023-02-05T03:58:44.180Z,84.81
2023-02-05T03:59:44.206Z,84.81
2023-02-05T04:00:44.355Z,84.71
2023-02-05T04:01:44.592Z,84.81
2023-02-05T04:02:44.312Z,84.71
2023-02-05T04:03:44.315Z,84.71
2023-02-05T04:05:44.374Z,84.71
2023-02-05T04:06:44.400Z,84.81
2023-02-05T04:07:44.533Z,84.71
2023-02-05T04:08:44.709Z,84.91
2023-02-05T04:09:44.476Z,83.85
2023-02-05T04:10:44.512Z,84.81
2023-02-05T04:11:44.536Z,84.91
2023-02-05T04:12:44.670Z,84.81
2023-02-05T04:13:44.593Z,84.71
2023-02-05T04:14:44.626Z,85.00
2023-02-05T04:15:44.954Z,84.61
2023-02-05T04:16:44.725Z,85.00
2023-02-05T04:17:44.713Z,84.91
2023-02-05T04:18:44.751Z,84.71
2023-02-05T04:19:44.755Z,84.71
2023-02-05T04:20:44.783Z,84.52
2023-02-05T04:21:44.812Z,84.71
2023-02-05T04:22:45.162Z,84.81
2023-02-05T04:23:44.941Z,84.91
2023-02-05T04:24:44.904Z,84.91
2023-02-05T04:25:44.936Z,84.81
2023-02-05T04:26:44.955Z,84.71
2023-02-05T04:27:45.027Z,84.61
2023-02-05T04:28:45.008Z,84.81
2023-02-05T04:29:45.345Z,84.81
2023-02-05T04:30:45.089Z,84.71
2023-02-05T04:31:45.160Z,84.14
2023-02-05T04:32:45.128Z,84.71
2023-02-05T04:33:45.147Z,84.14
2023-02-05T04:34:45.202Z,84.81
2023-02-05T04:35:45.206Z,84.71
2023-02-05T04:36:45.536Z,84.33
2023-02-05T04:37:45.260Z,84.71
2023-02-05T04:38:45.290Z,84.71
2023-02-05T04:39:45.323Z,84.81
2023-02-05T04:40:45.350Z,84.81
2023-02-05T04:41:45.378Z,84.81
2023-02-05T04:42:45.405Z,84.14
2023-02-05T04:43:45.740Z,84.71
2023-02-05T04:44:45.461Z,84.81
2023-02-05T04:45:45.638Z,84.81
2023-02-05T04:46:45.521Z,84.71
2023-02-05T04:47:45.549Z,84.91
2023-02-05T04:48:45.652Z,84.91
2023-02-05T04:49:45.596Z,84.67
2023-02-05T04:50:45.943Z,84.81
2023-02-05T04:51:45.652Z,84.23
2023-02-05T04:52:45.674Z,83.85
2023-02-05T04:53:45.708Z,84.33
2023-02-05T04:54:45.738Z,83.94
2023-02-05T04:55:45.765Z,84.14
2023-02-05T04:57:46.121Z,84.42
2023-02-05T04:58:45.853Z,84.52
2023-02-05T04:59:46.089Z,84.42
2023-02-05T05:00:45.899Z,83.91
2023-02-05T05:01:45.926Z,84.23
2023-02-05T05:02:46.109Z,84.14
2023-02-05T05:04:46.029Z,83.75
2023-02-05T05:05:46.347Z,84.19
2023-02-05T05:06:46.091Z,84.23
2023-02-05T05:07:46.090Z,83.91
2023-02-05T05:09:46.452Z,84.09
2023-02-05T05:10:46.468Z,84.23
2023-02-05T05:11:46.822Z,84.09
2023-02-05T05:12:46.961Z,84.28
2023-02-05T05:13:46.431Z,84.28
2023-02-05T05:14:46.296Z,83.91
2023-02-05T05:15:46.555Z,84.48
2023-02-05T05:16:47.121Z,84.00
2023-02-05T05:17:47.736Z,84.19
2023-02-05T05:18:47.611Z,84.19
2023-02-05T05:19:47.253Z,84.81
2023-02-05T05:20:47.235Z,84.28
2023-02-05T05:21:46.707Z,84.67
2023-02-05T05:22:46.601Z,84.67
2023-02-05T05:23:47.778Z,84.09
2023-02-05T05:24:48.412Z,84.77
2023-02-05T05:25:49.116Z,84.91
2023-02-05T05:26:50.098Z,85.05
2023-02-05T05:27:48.100Z,84.67
2023-02-05T05:28:48.654Z,84.67
2023-02-05T05:29:49.143Z,84.95
2023-02-05T05:30:48.490Z,84.67
2023-02-05T05:31:48.255Z,84.67
2023-02-05T05:32:48.899Z,84.67
2023-02-05T05:33:49.561Z,84.67
2023-02-05T05:34:49.229Z,84.86
2023-02-05T05:35:49.465Z,84.77
2023-02-05T05:36:48.257Z,84.67
2023-02-05T05:37:48.427Z,84.95
2023-02-05T05:38:48.314Z,84.58
2023-02-05T05:39:48.371Z,84.86
2023-02-05T05:40:47.809Z,84.58
2023-02-05T05:41:48.242Z,84.86
2023-02-05T05:42:48.451Z,84.77
2023-02-05T05:43:48.629Z,84.77
2023-02-05T05:44:47.870Z,84.77
2023-02-05T05:45:47.522Z,84.67
2023-02-05T05:46:47.203Z,84.67
2023-02-05T05:47:47.225Z,84.77
2023-02-05T05:48:47.306Z,84.86
2023-02-05T05:50:47.338Z,84.38
2023-02-05T05:51:47.374Z,84.67
2023-02-05T05:52:47.714Z,84.52
2023-02-05T05:53:47.421Z,84.67
2023-02-05T05:54:47.557Z,84.67
2023-02-05T05:55:47.504Z,84.58
2023-02-05T05:56:47.450Z,84.48
2023-02-05T05:57:47.642Z,84.67
2023-02-05T05:58:47.920Z,84.58
2023-02-05T05:59:47.621Z,84.67
2023-02-05T06:00:47.773Z,84.67
2023-02-05T06:01:47.625Z,84.67
2023-02-05T06:02:47.749Z,84.71
2023-02-05T06:03:47.688Z,84.67
2023-02-05T06:04:47.837Z,84.58
2023-02-05T06:05:47.730Z,84.71
2023-02-05T06:06:47.819Z,84.42
2023-02-05T06:07:47.923Z,84.58
2023-02-05T06:08:47.802Z,84.67
2023-02-05T06:09:47.867Z,84.58
2023-02-05T06:10:47.863Z,84.58
2023-02-05T06:11:48.828Z,84.67
2023-02-05T06:12:47.886Z,84.58
2023-02-05T06:13:47.908Z,84.67
2023-02-05T06:14:47.967Z,84.77
2023-02-05T06:15:48.043Z,84.67
2023-02-05T06:17:48.380Z,84.38
2023-02-05T06:18:48.355Z,84.67
2023-02-05T06:19:48.083Z,84.38
2023-02-05T06:20:48.102Z,84.67
2023-02-05T06:21:48.132Z,84.67
2023-02-05T06:22:48.160Z,84.58
2023-02-05T06:23:48.186Z,84.67
2023-02-05T06:24:48.211Z,84.77
2023-02-05T06:25:48.241Z,84.77
2023-02-05T06:26:48.300Z,84.77
2023-02-05T06:27:48.336Z,84.58
2023-02-05T06:28:48.639Z,84.67
2023-02-05T06:29:48.355Z,84.67
2023-02-05T06:30:48.508Z,84.58
2023-02-05T06:31:48.833Z,84.58
2023-02-05T06:32:48.436Z,84.77
2023-02-05T06:33:48.464Z,84.58
2023-02-05T06:34:48.490Z,84.95
2023-02-05T06:35:48.526Z,84.58
2023-02-05T06:36:48.545Z,84.86
2023-02-05T06:37:48.577Z,84.86
2023-02-05T06:38:48.899Z,84.38
2023-02-05T06:40:48.656Z,84.86
2023-02-05T06:41:48.684Z,84.86
2023-02-05T06:43:48.778Z,84.48
2023-02-05T06:44:48.916Z,84.58
2023-02-05T06:45:49.102Z,84.58
2023-02-05T06:46:48.820Z,84.58
2023-02-05T06:47:48.860Z,84.58
2023-02-05T06:48:48.875Z,84.77
2023-02-05T06:49:48.912Z,84.33
2023-02-05T06:50:48.934Z,84.38
2023-02-05T06:51:48.958Z,84.38
2023-02-05T06:52:49.284Z,84.86
2023-02-05T06:53:49.020Z,84.86
2023-02-05T06:54:49.064Z,84.86
2023-02-05T06:55:49.080Z,84.28
2023-02-05T06:56:49.099Z,84.58
2023-02-05T06:57:49.124Z,84.86
2023-02-05T06:58:49.157Z,84.58
2023-02-05T06:59:49.204Z,84.28
2023-02-05T07:00:49.415Z,84.67
2023-02-05T07:01:49.315Z,84.67
2023-02-05T07:02:49.319Z,84.58
2023-02-05T07:03:49.296Z,84.77
2023-02-05T07:04:49.628Z,84.48
2023-02-05T07:05:49.363Z,84.95
2023-02-05T07:06:49.428Z,84.58
2023-02-05T07:07:49.995Z,84.58
2023-02-05T07:08:49.436Z,84.95
2023-02-05T07:09:49.459Z,84.58
2023-02-05T07:10:49.809Z,84.48
2023-02-05T07:11:49.516Z,84.28
2023-02-05T07:12:49.556Z,84.19
2023-02-05T07:13:49.581Z,84.77
2023-02-05T07:14:49.596Z,84.67
2023-02-05T07:15:49.779Z,84.19
2023-02-05T07:16:49.657Z,84.77
2023-02-05T07:17:50.014Z,84.19
2023-02-05T07:18:49.708Z,84.19
2023-02-05T07:19:49.743Z,84.67
2023-02-05T07:20:49.766Z,84.67
2023-02-05T07:21:49.795Z,84.77
2023-02-05T07:22:49.820Z,84.67
2023-02-05T07:23:49.855Z,84.77
2023-02-05T07:25:49.931Z,84.19
2023-02-05T07:26:49.972Z,84.09
2023-02-05T07:27:50.025Z,84.19
2023-02-05T07:28:49.985Z,84.09
2023-02-05T07:29:50.011Z,84.09
2023-02-05T07:30:50.119Z,84.86
2023-02-05T07:31:50.468Z,84.58
2023-02-05T07:32:50.100Z,84.67
2023-02-05T07:33:50.134Z,84.77
2023-02-05T07:34:50.170Z,84.86
2023-02-05T07:35:50.186Z,84.19
2023-02-05T07:36:50.214Z,84.19
2023-02-05T07:37:50.234Z,84.19
2023-02-05T07:38:50.558Z,84.19
2023-02-05T07:39:50.323Z,84.28
2023-02-05T07:40:50.314Z,84.58
2023-02-05T07:41:50.349Z,84.00
2023-02-05T07:42:50.370Z,84.77
2023-02-05T07:43:50.392Z,84.67
2023-02-05T07:45:50.450Z,84.86
2023-02-05T07:46:50.542Z,84.95
2023-02-05T07:47:50.532Z,84.95
2023-02-05T07:48:50.539Z,84.67
2023-02-05T07:49:50.559Z,84.09
2023-02-05T07:50:50.584Z,84.77
2023-02-05T07:51:50.916Z,84.19
2023-02-05T07:52:50.651Z,83.91
2023-02-05T07:54:50.991Z,83.71
2023-02-05T07:55:50.730Z,84.09
2023-02-05T07:56:50.751Z,84.00
2023-02-05T07:57:50.773Z,84.28
2023-02-05T07:58:50.801Z,83.91
2023-02-05T07:59:50.834Z,84.00
2023-02-05T08:00:50.906Z,84.09
2023-02-05T08:01:50.893Z,83.91
2023-02-05T08:03:51.038Z,84.00
2023-02-05T08:04:51.075Z,84.00
2023-02-05T08:05:50.999Z,84.28
2023-02-05T08:06:51.035Z,84.19
2023-02-05T08:07:51.050Z,83.91
2023-02-05T08:08:51.080Z,84.00
2023-02-05T08:10:51.436Z,84.00
2023-02-05T08:11:51.165Z,84.38
2023-02-05T08:13:51.225Z,84.00
2023-02-05T08:14:51.240Z,83.81
2023-02-05T08:15:51.274Z,84.38
2023-02-05T08:16:51.600Z,83.71
2023-02-05T08:17:51.333Z,84.28
2023-02-05T08:18:51.350Z,83.91
2023-02-05T08:19:51.403Z,83.91
2023-02-05T08:20:51.407Z,83.81
2023-02-05T08:21:51.436Z,84.28
2023-02-05T08:22:51.766Z,84.19
2023-02-05T08:23:51.511Z,84.86
2023-02-05T08:24:51.517Z,84.77
2023-02-05T08:25:51.546Z,83.71
2023-02-05T08:26:51.572Z,84.09
2023-02-05T08:27:51.637Z,84.19
2023-02-05T08:29:51.962Z,84.09
2023-02-05T08:30:51.720Z,84.19
2023-02-05T08:32:51.732Z,84.86
2023-02-05T08:33:51.770Z,84.09
2023-02-05T08:35:51.859Z,84.86
2023-02-05T08:36:52.145Z,84.19
2023-02-05T08:37:51.897Z,84.09
2023-02-05T08:38:51.895Z,84.38
2023-02-05T08:39:51.926Z,84.38
2023-02-05T08:40:51.960Z,84.28
2023-02-05T08:41:51.977Z,84.48
2023-02-05T08:42:52.028Z,84.09
2023-02-05T08:43:52.041Z,83.91
2023-02-05T08:45:52.105Z,83.71
2023-02-05T08:46:52.117Z,83.91
2023-02-05T08:47:52.136Z,83.52
2023-02-05T08:48:52.165Z,83.91
2023-02-05T08:49:52.446Z,84.00
2023-02-05T08:51:52.417Z,83.52
2023-02-05T08:52:52.278Z,83.52
2023-02-05T08:53:52.301Z,83.81
2023-02-05T08:54:52.330Z,84.00
2023-02-05T08:55:52.367Z,84.05
2023-02-05T08:56:52.686Z,83.48
2023-02-05T08:57:52.414Z,83.61
2023-02-05T09:05:01.812Z,84.19
2023-02-05T09:05:52.630Z,84.77
2023-02-05T09:06:52.656Z,84.44
2023-02-05T09:07:52.703Z,84.95
2023-02-05T09:08:52.706Z,84.86
2023-02-05T09:09:52.738Z,84.63
2023-02-05T09:10:52.776Z,84.86
2023-02-05T09:11:52.790Z,84.91
2023-02-05T09:12:52.825Z,84.67
2023-02-05T09:13:52.847Z,84.67
2023-02-05T09:16:53.324Z,84.38
2023-02-05T09:17:52.967Z,84.00
2023-02-05T09:18:52.987Z,84.05
2023-02-05T09:19:53.012Z,84.05
2023-02-05T09:20:53.042Z,84.19
2023-02-05T09:21:54.237Z,84.05
2023-02-05T09:22:53.093Z,83.42
2023-02-05T09:23:53.141Z,83.61
2023-02-05T09:24:53.151Z,84.19
2023-02-05T09:25:53.280Z,83.48
2023-02-05T09:26:53.199Z,83.33
2023-02-05T09:27:53.281Z,83.23
2023-02-05T09:28:53.567Z,83.09
2023-02-05T09:29:53.290Z,83.33
2023-02-05T09:30:53.467Z,83.23
2023-02-05T09:31:53.423Z,83.48
2023-02-05T09:32:53.372Z,83.29
2023-02-05T09:33:53.395Z,83.91
2023-02-05T09:34:53.422Z,84.05
2023-02-05T09:35:53.445Z,83.71
2023-02-05T09:37:53.501Z,84.09
2023-02-05T09:40:19.432Z,84.34
2023-02-05T09:40:53.582Z,84.28
2023-02-05T09:43:53.731Z,84.28
2023-02-05T09:44:53.699Z,83.86
2023-02-05T09:45:53.755Z,83.58
2023-02-05T09:46:53.750Z,83.14
2023-02-05T09:47:53.776Z,83.23
2023-02-05T09:48:53.799Z,84.09
2023-02-05T09:49:53.824Z,84.00
2023-02-05T09:50:53.886Z,84.77
2023-02-05T09:51:53.884Z,84.58
2023-02-05T09:52:53.907Z,84.38
2023-02-05T09:53:53.930Z,83.91
2023-02-05T09:54:53.959Z,83.48
2023-02-05T09:55:54.010Z,83.81
2023-02-05T09:56:54.012Z,84.38
2023-02-05T09:57:54.062Z,83.71
2023-02-05T09:58:54.065Z,83.42
2023-02-05T09:59:54.122Z,83.19
2023-02-05T10:00:54.151Z,83.61
2023-02-05T10:01:54.153Z,83.14
2023-02-05T10:02:54.182Z,83.48
2023-02-05T10:03:54.252Z,83.23
2023-02-05T10:04:54.291Z,84.25
2023-02-05T10:05:54.263Z,83.48
2023-02-05T10:06:54.282Z,83.09
2023-02-05T10:07:54.561Z,83.58
2023-02-05T10:08:54.340Z,83.19
2023-02-05T10:09:54.415Z,83.14
2023-02-05T10:10:54.400Z,83.33
2023-02-05T10:11:54.443Z,83.91
2023-02-05T10:12:54.442Z,83.67
2023-02-05T10:13:54.483Z,83.38
2023-02-05T10:14:54.505Z,83.23
2023-02-05T10:15:54.561Z,83.19
2023-02-05T10:16:54.553Z,83.23
2023-02-05T10:18:54.614Z,83.91
2023-02-05T10:19:54.635Z,83.67
2023-02-05T10:20:54.668Z,83.91
2023-02-05T10:21:54.694Z,83.38
2023-02-05T10:22:54.812Z,83.33
2023-02-05T10:23:54.739Z,83.33
2023-02-05T10:24:54.817Z,82.85
2023-02-05T10:25:54.797Z,82.42
2023-02-05T10:26:54.817Z,83.42
2023-02-05T10:27:55.022Z,83.19
2023-02-05T10:28:54.877Z,82.90
2023-02-05T10:29:54.909Z,82.71
2023-02-05T10:30:55.037Z,83.29
2023-02-05T10:31:55.364Z,83.19
2023-02-05T10:33:55.010Z,83.19
2023-02-05T10:34:55.051Z,83.19
2023-02-05T10:35:55.169Z,83.29
2023-02-05T10:36:55.097Z,83.00
2023-02-05T10:37:56.862Z,83.38
2023-02-05T10:38:55.408Z,83.48
2023-02-05T10:40:55.248Z,83.09
2023-02-05T10:41:55.265Z,83.09
2023-02-05T10:42:55.309Z,83.09
2023-02-05T10:43:55.427Z,84.44
2023-02-05T10:44:55.306Z,83.86
2023-02-05T10:45:55.701Z,83.67
2023-02-05T10:46:55.393Z,83.38
2023-02-05T10:47:55.465Z,83.29
2023-02-05T10:48:55.411Z,82.52
2023-02-05T10:49:56.304Z,83.09
2023-02-05T10:50:55.473Z,82.71
2023-02-05T10:51:55.506Z,82.71
2023-02-05T10:52:55.820Z,82.90
2023-02-05T10:53:55.550Z,82.62
2023-02-05T10:54:55.603Z,82.71
2023-02-05T10:55:55.605Z,82.71
2023-02-05T10:56:55.629Z,82.52
2023-02-05T10:57:55.696Z,82.62
2023-02-05T10:58:55.692Z,82.71
2023-02-05T10:59:56.089Z,82.71
2023-02-05T11:00:55.740Z,83.48
2023-02-05T11:01:55.798Z,83.00
2023-02-05T11:02:55.830Z,83.19
2023-02-05T11:03:55.817Z,83.19
2023-02-05T11:04:55.842Z,82.71
2023-02-05T11:05:55.888Z,82.71
2023-02-05T11:06:55.911Z,82.52
2023-02-05T11:07:55.946Z,83.76
2023-02-05T11:08:55.951Z,83.29
2023-02-05T11:09:55.980Z,82.62
2023-02-05T11:10:56.009Z,82.71
2023-02-05T11:11:56.050Z,83.00
2023-02-05T11:12:56.056Z,82.81
2023-02-05T11:13:56.096Z,82.62
2023-02-05T11:14:56.111Z,83.19
2023-02-05T11:15:56.210Z,82.90
2023-02-05T11:16:56.164Z,82.71
2023-02-05T11:17:56.199Z,82.52
2023-02-05T11:18:56.223Z,82.71
2023-02-05T11:19:56.259Z,82.90
2023-02-05T11:20:56.274Z,82.71
2023-02-05T11:21:56.317Z,83.19
2023-02-05T11:22:56.325Z,83.19
2023-02-05T11:23:56.350Z,83.38
2023-02-05T11:24:57.239Z,83.38
2023-02-05T11:25:56.422Z,82.71
2023-02-05T11:26:56.450Z,83.00
2023-02-05T11:27:56.529Z,83.19
2023-02-05T11:28:56.502Z,82.90
2023-02-05T11:29:56.520Z,82.52
2023-02-05T11:30:56.957Z,82.52
2023-02-05T11:31:56.991Z,82.52
2023-02-05T11:32:56.594Z,82.42
2023-02-05T11:33:56.624Z,83.00
2023-02-05T11:34:57.443Z,83.38
2023-02-05T11:35:56.679Z,82.81
2023-02-05T11:36:56.703Z,82.52
2023-02-05T11:37:56.897Z,83.38
2023-02-05T11:38:57.087Z,83.76
2023-02-05T11:39:56.801Z,83.86
2023-02-05T11:40:56.811Z,82.90
2023-02-05T11:41:56.844Z,82.62
2023-02-05T11:42:56.870Z,83.48
2023-02-05T11:44:57.216Z,83.38
2023-02-05T11:45:56.944Z,83.76
2023-02-05T11:46:57.034Z,83.09
2023-02-05T11:48:57.050Z,83.95
2023-02-05T11:49:57.063Z,84.53
2023-02-05T11:50:57.081Z,84.63
2023-02-05T11:51:57.103Z,84.34
2023-02-05T11:52:57.127Z,83.48
2023-02-05T11:53:57.191Z,82.32
2023-02-05T11:54:57.189Z,83.09
2023-02-05T11:55:57.211Z,83.76
2023-02-05T11:56:57.249Z,84.15
2023-02-05T11:57:57.576Z,83.76
2023-02-05T11:58:57.398Z,83.19
2023-02-05T11:59:57.323Z,83.67
2023-02-05T12:00:57.416Z,83.95
2023-02-05T12:01:57.390Z,83.67
2023-02-05T12:02:57.470Z,83.86
2023-02-05T12:03:57.430Z,83.95
2023-02-05T12:04:57.779Z,83.09
2023-02-05T12:05:57.504Z,83.29
2023-02-05T12:06:57.533Z,82.62
2023-02-05T12:07:57.538Z,82.81
2023-02-05T12:08:57.568Z,82.52
2023-02-05T12:09:57.598Z,83.19
2023-02-05T12:10:57.636Z,83.29
2023-02-05T12:11:57.652Z,83.09
2023-02-05T12:12:57.670Z,82.71
2023-02-05T12:13:57.696Z,82.71
2023-02-05T12:14:58.054Z,82.81
2023-02-05T12:15:57.770Z,82.62
2023-02-05T12:16:57.793Z,82.90
2023-02-05T12:17:57.805Z,83.48
2023-02-05T12:18:57.843Z,83.48
2023-02-05T12:19:57.864Z,83.29
2023-02-05T12:20:57.907Z,83.19
2023-02-05T12:21:57.926Z,83.19
2023-02-05T12:22:57.938Z,82.90
2023-02-05T12:23:58.214Z,83.00
2023-02-05T12:24:57.988Z,83.58
2023-02-05T12:25:58.022Z,83.00
2023-02-05T12:26:58.052Z,83.76
2023-02-05T12:27:58.259Z,84.05
2023-02-05T12:28:58.097Z,83.76
2023-02-05T12:30:58.177Z,84.63
2023-02-05T12:31:58.238Z,83.76
2023-02-05T12:32:58.220Z,83.67
2023-02-05T12:33:58.228Z,83.95
2023-02-05T12:34:58.256Z,83.76
2023-02-05T12:35:58.583Z,84.15
2023-02-05T12:36:58.387Z,84.72
2023-02-05T12:37:58.338Z,84.05
2023-02-05T12:38:58.367Z,84.15
2023-02-05T12:39:58.403Z,84.25
2023-02-05T12:40:58.437Z,84.82
2023-02-05T12:41:58.438Z,84.72
2023-02-05T12:42:58.728Z,83.95
2023-02-05T12:43:58.497Z,84.72
2023-02-05T12:44:58.532Z,84.44
2023-02-05T12:45:58.588Z,84.05
2023-02-05T12:46:58.577Z,84.44
2023-02-05T12:47:58.608Z,83.67
2023-02-05T12:48:58.670Z,84.44
2023-02-05T12:49:58.953Z,84.82
2023-02-05T12:50:58.681Z,85.30
2023-02-05T12:53:58.795Z,86.21
2023-02-05T12:54:58.809Z,85.05
2023-02-05T12:55:58.817Z,84.28
2023-02-05T12:56:58.857Z,84.77
2023-02-05T12:57:58.882Z,84.86
2023-02-05T12:58:58.898Z,85.72
2023-02-05T12:59:58.929Z,85.92
2023-02-05T13:01:59.295Z,85.72
2023-02-05T13:02:59.005Z,85.92
2023-02-05T13:04:01.156Z,85.34
2023-02-05T13:04:59.061Z,86.21
2023-02-05T13:06:59.138Z,85.63
2023-02-05T13:07:59.253Z,85.53
2023-02-05T13:08:59.183Z,86.01
2023-02-05T13:10:01.190Z,84.95
2023-02-05T13:13:17.662Z,85.86
2023-02-05T13:14:17.679Z,85.86
2023-02-05T13:15:17.716Z,85.58
2023-02-05T13:17:17.785Z,85.00
2023-02-05T13:18:17.840Z,84.71
2023-02-05T13:19:18.127Z,84.81
2023-02-05T13:21:17.877Z,84.91
2023-02-05T13:22:17.912Z,84.91
2023-02-05T13:23:17.943Z,84.81
2023-02-05T13:24:17.964Z,84.91
2023-02-05T13:25:21.070Z,85.19
2023-02-05T13:26:18.303Z,85.10
2023-02-05T13:27:18.053Z,85.00
2023-02-05T13:28:18.144Z,85.28
2023-02-05T13:29:18.092Z,85.86
2023-02-05T13:31:18.251Z,85.48
2023-02-05T13:32:18.167Z,85.86
2023-02-05T13:33:18.516Z,85.77
2023-02-05T13:34:18.285Z,84.61
2023-02-05T13:35:18.247Z,84.81
2023-02-05T13:36:18.280Z,85.28
2023-02-05T13:38:18.334Z,85.00
2023-02-05T13:40:18.632Z,84.91
2023-02-05T13:41:18.433Z,85.38
2023-02-05T13:42:18.438Z,85.28
2023-02-05T13:43:18.462Z,85.00
2023-02-05T13:44:18.500Z,85.28
2023-02-05T13:45:18.516Z,85.19
2023-02-05T13:46:18.629Z,84.91
2023-02-05T13:47:18.894Z,84.81
2023-02-05T13:48:18.615Z,85.10
2023-02-05T13:49:18.638Z,85.28
2023-02-05T13:51:18.684Z,84.91
2023-02-05T13:52:18.716Z,85.10
2023-02-05T13:53:18.751Z,84.61
2023-02-05T13:54:19.069Z,84.81
2023-02-05T13:55:18.786Z,84.91
2023-02-05T13:56:18.827Z,84.56
2023-02-05T13:57:18.930Z,84.85
2023-02-05T13:58:18.884Z,84.85
2023-02-05T13:59:18.924Z,84.85
2023-02-05T14:00:18.956Z,84.61
2023-02-05T14:02:19.280Z,84.66
2023-02-05T14:03:19.040Z,84.95
2023-02-05T14:04:19.040Z,85.04